Time;durP1;ratioP1;P1;durP2;ratioP2;P2;SDS_P1;SDS_P2;PMS_P1;PMS_P2;Temp;Humidity;BMP_temperature;BMP_pressure;BME280_temperature;BME280_humidity;BME280_pressure;Samples;Min_cycle;Max_cycle;Signal;HPM_P1;HPM_P2
2022/02/15 00:01:05;;;;;;;56.20;27.27;;;;;;;1.60;71.33;94325.09;5062185;28;20223;-69
2022/02/15 00:03:30;;;;;;;63.22;27.88;;;;;;;1.59;71.83;94326.94;5062207;28;20025;-70
2022/02/15 00:05:56;;;;;;;53.22;27.70;;;;;;;1.59;72.42;94324.31;5062411;28;20212;-70
2022/02/15 00:08:22;;;;;;;66.75;31.95;;;;;;;1.64;72.77;94322.78;5062223;28;20051;-70
2022/02/15 00:10:47;;;;;;;55.25;28.88;;;;;;;1.63;72.48;94322.00;5062356;28;20135;-70
2022/02/15 00:13:14;;;;;;;62.80;30.67;;;;;;;1.59;72.17;94318.28;5062038;28;20045;-70
2022/02/15 00:15:40;;;;;;;83.68;36.05;;;;;;;1.61;71.91;94313.56;5062294;28;20028;-70
2022/02/15 00:18:06;;;;;;;84.18;37.00;;;;;;;1.62;71.48;94312.50;5062191;28;20020;-70
2022/02/15 00:20:31;;;;;;;80.63;38.05;;;;;;;1.65;70.88;94314.66;5061035;28;20289;-70
2022/02/15 00:22:57;;;;;;;85.80;39.15;;;;;;;1.64;70.47;94318.31;5061987;28;20021;-70
2022/02/15 00:25:22;;;;;;;82.45;35.80;;;;;;;1.66;69.82;94308.34;5061841;28;20017;-70
2022/02/15 00:27:48;;;;;;;79.80;34.55;;;;;;;1.66;69.22;94316.22;5061113;28;20091;-70
2022/02/15 00:30:14;;;;;;;82.10;36.78;;;;;;;1.62;69.65;94314.34;5062200;28;20315;-70
2022/02/15 00:32:41;;;;;;;82.20;32.40;;;;;;;1.56;69.91;94318.75;5066005;28;20028;-70
2022/02/15 00:35:07;;;;;;;72.03;33.05;;;;;;;1.49;70.29;94320.78;5065904;28;20087;-70
2022/02/15 00:37:32;;;;;;;74.93;34.22;;;;;;;1.53;69.86;94316.63;5065802;28;20017;-70
2022/02/15 00:39:58;;;;;;;75.15;33.75;;;;;;;1.54;69.45;94315.56;5065979;28;20036;-70
2022/02/15 00:42:24;;;;;;;64.95;31.55;;;;;;;1.51;69.62;94316.84;5065843;28;20033;-70
2022/02/15 00:44:49;;;;;;;72.03;32.90;;;;;;;1.49;69.90;94318.16;5066032;28;20335;-71
2022/02/15 00:47:16;;;;;;;65.90;31.13;;;;;;;1.54;69.80;94315.56;5065588;28;20032;-70
2022/02/15 00:49:41;;;;;;;71.15;32.38;;;;;;;1.50;69.67;94317.88;5065688;28;20079;-70
2022/02/15 00:52:07;;;;;;;70.88;33.28;;;;;;;1.50;70.16;94306.59;5065682;28;20025;-70
2022/02/15 00:54:32;;;;;;;73.65;35.13;;;;;;;1.45;70.17;94315.22;5065563;28;20025;-70
2022/02/15 00:56:58;;;;;;;69.38;33.40;;;;;;;1.39;70.08;94303.06;5065519;28;20852;-70
2022/02/15 00:59:23;;;;;;;78.30;33.78;;;;;;;1.40;70.15;94310.69;5065350;28;20092;-70
2022/02/15 01:01:49;;;;;;;68.13;33.80;;;;;;;1.33;70.21;94298.78;5065650;28;20033;-70
2022/02/15 01:04:14;;;;;;;73.93;32.05;;;;;;;1.34;70.15;94301.16;5065396;28;20066;-70
2022/02/15 01:06:40;;;;;;;67.07;32.67;;;;;;;1.33;70.12;94306.66;5065512;28;20027;-70
2022/02/15 01:09:05;;;;;;;70.07;32.95;;;;;;;1.34;70.02;94295.91;5065356;28;20059;-70
2022/02/15 01:11:31;;;;;;;70.63;30.15;;;;;;;1.37;70.12;94300.66;5065071;28;20036;-70
2022/02/15 01:13:56;;;;;;;76.03;31.73;;;;;;;1.32;69.99;94276.97;5065347;28;20323;-70
2022/02/15 01:16:21;;;;;;;70.85;32.65;;;;;;;1.33;69.96;94285.66;5064232;28;20311;-70
2022/02/15 01:18:47;;;;;;;58.88;28.55;;;;;;;1.32;70.52;94276.97;5065068;28;20029;-70
2022/02/15 01:21:12;;;;;;;65.68;29.90;;;;;;;1.29;71.53;94269.56;5065038;28;20098;-70
2022/02/15 01:23:38;;;;;;;51.80;26.90;;;;;;;1.30;72.15;94276.41;5064897;28;20055;-70
2022/02/15 01:26:04;;;;;;;59.28;26.15;;;;;;;1.23;72.23;94267.94;5065063;28;20586;-70
2022/02/15 01:28:30;;;;;;;60.20;27.90;;;;;;;1.25;72.29;94273.72;5065010;28;20040;-70
2022/02/15 01:30:56;;;;;;;63.53;28.08;;;;;;;1.14;71.03;94261.50;5064893;28;20219;-70
2022/02/15 01:33:21;;;;;;;72.82;30.80;;;;;;;1.13;70.95;94265.19;5064925;28;20226;-70
2022/02/15 01:35:46;;;;;;;73.45;31.42;;;;;;;1.12;70.72;94267.00;5064814;28;20092;-70
2022/02/15 01:38:12;;;;;;;68.78;31.02;;;;;;;1.08;70.64;94265.91;5064755;28;20371;-70
2022/02/15 01:40:38;;;;;;;69.00;32.80;;;;;;;1.04;71.58;94259.56;5064841;28;20311;-70
2022/02/15 01:43:04;;;;;;;67.68;31.98;;;;;;;1.00;72.70;94259.25;5064291;28;20029;-70
2022/02/15 01:45:29;;;;;;;67.45;30.98;;;;;;;1.00;72.82;94253.22;5064603;28;20062;-70
2022/02/15 01:47:55;;;;;;;69.80;32.00;;;;;;;1.04;71.55;94259.56;5064673;28;20017;-70
2022/02/15 01:50:20;;;;;;;76.70;34.00;;;;;;;1.05;71.17;94250.63;5064910;28;20039;-70
2022/02/15 01:52:46;;;;;;;67.60;30.40;;;;;;;1.06;71.43;94251.41;5064339;28;20032;-70
2022/02/15 01:55:14;;;;;;;64.07;32.17;;;;;;;1.07;72.15;94253.03;5064588;28;20016;-70
2022/02/15 01:57:40;;;;;;;76.22;31.70;;;;;;;1.08;71.49;94265.91;5064423;28;20040;-70
2022/02/15 02:00:08;;;;;;;79.30;32.88;;;;;;;1.06;71.85;94261.94;5064493;28;20338;-70
2022/02/15 02:02:34;;;;;;;82.65;30.95;;;;;;;1.06;71.05;94265.38;5064466;28;20025;-70
2022/02/15 02:07:44;;;;;;;80.18;30.35;;;;;;;0.99;72.63;94252.41;5064340;28;20108;-70
2022/02/15 02:10:11;;;;;;;82.13;31.10;;;;;;;1.00;72.58;94259.25;5064404;28;20025;-70
2022/02/15 02:12:37;;;;;;;77.75;30.25;;;;;;;1.01;71.71;94260.03;5064065;28;20055;-70
2022/02/15 02:15:06;;;;;;;61.95;28.90;;;;;;;1.00;72.38;94259.25;5064079;28;20036;-70
2022/02/15 02:17:33;;;;;;;67.43;30.42;;;;;;;0.99;73.33;94262.09;5064029;28;20021;-70
2022/02/15 02:19:58;;;;;;;65.82;30.73;;;;;;;0.97;73.66;94264.97;5063985;28;20017;-71
2022/02/15 02:22:25;;;;;;;70.50;29.48;;;;;;;0.95;74.00;94268.88;5064067;28;20276;-70
2022/02/15 02:24:52;;;;;;;54.35;27.65;;;;;;;0.85;75.04;94268.75;5063963;28;20342;-70
2022/02/15 02:27:39;;;;;;;70.43;29.92;;;;;;;0.85;74.82;94268.75;5062614;28;20346;-70
2022/02/15 02:30:05;;;;;;;60.85;28.48;;;;;;;0.88;75.10;94261.19;5063870;28;20242;-70
2022/02/15 02:32:32;;;;;;;58.97;28.50;;;;;;;0.95;75.06;94264.41;5063753;28;20029;-70
2022/02/15 02:35:01;;;;;;;57.10;29.30;;;;;;;0.97;75.00;94264.97;5063596;28;20021;-70
2022/02/15 02:37:27;;;;;;;58.33;31.35;;;;;;;0.97;75.36;94272.06;5063468;28;20359;-70
2022/02/15 02:39:54;;;;;;;67.47;31.10;;;;;;;0.99;75.75;94289.16;5063825;28;20048;-70
2022/02/15 02:42:26;;;;;;;69.72;30.70;;;;;;;1.00;74.83;94285.50;5063651;28;20092;-70
2022/02/15 02:44:53;;;;;;;68.55;32.13;;;;;;;1.00;75.33;94284.72;5063628;28;20310;-70
2022/02/15 02:47:18;;;;;;;63.63;30.00;;;;;;;1.03;74.93;94283.44;5063774;28;20230;-70
2022/02/15 02:49:44;;;;;;;74.63;34.08;;;;;;;1.02;75.74;94281.81;5063649;28;20025;-70
2022/02/15 02:52:09;;;;;;;71.72;35.85;;;;;;;1.02;76.12;94292.31;5062039;28;20261;-70
2022/02/15 02:54:35;;;;;;;74.40;34.92;;;;;;;1.10;76.11;94286.66;5062850;28;20078;-70
2022/02/15 02:57:01;;;;;;;74.80;34.60;;;;;;;1.13;76.07;94294.06;5063114;28;20223;-70
2022/02/15 02:59:27;;;;;;;79.85;35.78;;;;;;;1.06;76.32;94298.69;5063280;28;20342;-70
2022/02/15 03:01:53;;;;;;;80.30;36.63;;;;;;;1.08;76.32;94302.66;5063309;28;20013;-70
2022/02/15 03:04:18;;;;;;;78.22;37.95;;;;;;;1.02;76.58;94302.81;5061885;28;20021;-70
2022/02/15 03:06:44;;;;;;;75.03;34.67;;;;;;;0.99;76.61;94302.28;5063134;28;20354;-70
2022/02/15 03:09:10;;;;;;;76.43;35.50;;;;;;;0.99;76.85;94314.59;5062967;28;20062;-70
2022/02/15 03:11:35;;;;;;;88.18;37.47;;;;;;;0.94;77.21;94304.84;5063045;28;20040;-70
2022/02/15 03:14:01;;;;;;;83.45;35.15;;;;;;;0.89;77.49;94296.88;5062956;28;20067;-70
2022/02/15 03:16:27;;;;;;;88.78;33.83;;;;;;;0.88;77.79;94307.66;5063088;28;20385;-70
2022/02/15 03:18:53;;;;;;;90.38;35.83;;;;;;;0.84;78.33;94307.31;5063047;28;20036;-70
2022/02/15 03:21:19;;;;;;;94.32;36.83;;;;;;;0.76;78.59;94300.66;5062770;28;20311;-70
2022/02/15 03:23:44;;;;;;;85.95;38.38;;;;;;;0.82;79.11;94311.22;5062855;28;20031;-70
2022/02/15 03:26:10;;;;;;;92.15;39.30;;;;;;;0.89;79.07;94311.84;5062763;28;20040;-70
2022/02/15 03:28:36;;;;;;;97.35;38.10;;;;;;;0.98;79.16;94308.56;5062698;28;20062;-70
2022/02/15 03:31:03;;;;;;;117.93;39.25;;;;;;;1.05;78.35;94318.91;5062627;28;20052;-70
2022/02/15 03:33:28;;;;;;;85.50;35.47;;;;;;;1.10;78.45;94315.53;5062713;28;20027;-70
2022/02/15 03:35:54;;;;;;;89.90;39.63;;;;;;;1.14;78.19;94314.81;5062675;28;20020;-70
2022/02/15 03:38:19;;;;;;;98.93;36.55;;;;;;;1.17;77.70;94316.94;5062703;28;20021;-70
2022/02/15 03:43:28;;;;;;;80.72;34.97;;;;;;;1.25;78.03;94312.34;5062476;28;20214;-70
2022/02/15 03:45:54;;;;;;;78.35;34.88;;;;;;;1.33;76.98;94309.28;5062689;28;20044;-70
2022/02/15 03:48:19;;;;;;;86.68;34.60;;;;;;;1.39;76.59;94324.06;5062406;28;20036;-70
2022/02/15 03:50:45;;;;;;;81.43;35.50;;;;;;;1.33;75.95;94310.06;5062454;28;20262;-70
2022/02/15 03:53:10;;;;;;;77.25;33.60;;;;;;;1.38;75.69;94320.66;5062461;28;20016;-70
2022/02/15 03:55:36;;;;;;;103.38;37.35;;;;;;;1.36;75.50;94321.91;5062459;28;20028;-70
2022/02/15 03:58:02;;;;;;;94.63;34.42;;;;;;;1.32;75.36;94334.75;5062221;28;20044;-70
2022/02/15 04:00:27;;;;;;;84.05;33.42;;;;;;;1.20;75.67;94331.41;5062226;28;20032;-70
2022/02/15 04:02:55;;;;;;;106.03;32.55;;;;;;;1.24;75.95;94327.28;5062279;28;20031;-70
2022/02/15 04:05:21;;;;;;;89.35;34.05;;;;;;;1.30;76.04;94331.56;5062316;28;20028;-70
2022/02/15 04:07:46;;;;;;;87.10;33.92;;;;;;;1.29;76.26;94324.72;5062305;28;20040;-70
2022/02/15 04:10:12;;;;;;;87.43;36.45;;;;;;;1.34;75.93;94311.66;5062250;28;20024;-70
2022/02/15 04:12:37;;;;;;;96.15;36.13;;;;;;;1.38;75.68;94319.84;5060834;28;20120;-70
2022/02/15 04:15:03;;;;;;;101.70;37.13;;;;;;;1.47;75.49;94323.63;5062129;28;20029;-70
2022/02/15 04:17:28;;;;;;;88.35;34.95;;;;;;;1.52;74.95;94313.19;5062405;28;20053;-70
2022/02/15 04:19:54;;;;;;;90.45;36.17;;;;;;;1.52;74.99;94317.66;5062462;28;20021;-70
2022/02/15 04:22:19;;;;;;;81.75;34.70;;;;;;;1.50;74.59;94312.63;5062096;28;20052;-70
2022/02/15 04:24:44;;;;;;;92.55;35.65;;;;;;;1.50;74.28;94310.00;5061945;28;20311;-70
2022/02/15 04:27:10;;;;;;;93.35;37.95;;;;;;;1.46;74.05;94301.03;5061986;28;20020;-70
2022/02/15 04:29:35;;;;;;;81.32;33.00;;;;;;;1.46;73.54;94305.50;5062077;28;20307;-70
2022/02/15 04:32:01;;;;;;;79.57;34.20;;;;;;;1.46;73.23;94308.13;5061943;28;20036;-71
2022/02/15 04:34:26;;;;;;;73.80;32.95;;;;;;;1.45;72.82;94301.28;5062069;28;20052;-70
2022/02/15 04:36:52;;;;;;;67.65;31.50;;;;;;;1.42;72.76;94305.19;5061986;28;20036;-70
2022/02/15 04:39:17;;;;;;;78.60;33.08;;;;;;;1.37;72.56;94308.53;5061996;28;20376;-70
2022/02/15 04:41:42;;;;;;;104.55;35.15;;;;;;;1.32;71.78;94312.94;5061991;28;20096;-70
2022/02/15 04:44:08;;;;;;;86.28;34.13;;;;;;;1.21;72.52;94319.91;5062115;28;20017;-70
2022/02/15 04:46:34;;;;;;;86.18;33.50;;;;;;;1.12;72.74;94319.53;5062054;28;20214;-70
2022/02/15 04:48:59;;;;;;;92.18;35.70;;;;;;;1.09;73.50;94314.75;5061644;28;20017;-70
2022/02/15 04:51:26;;;;;;;95.03;37.58;;;;;;;1.09;73.42;94319.22;5061901;28;20215;-70
2022/02/15 04:53:52;;;;;;;88.10;37.60;;;;;;;1.08;73.66;94333.34;5061854;28;20020;-70
2022/02/15 04:56:17;;;;;;;183.77;37.75;;;;;;;1.03;73.61;94317.56;5061718;28;20039;-70
2022/02/15 04:58:43;;;;;;;165.98;37.72;;;;;;;0.90;73.74;94323.94;5061898;28;20398;-70
2022/02/15 05:01:08;;;;;;;279.23;37.35;;;;;;;0.81;74.16;94326.16;5061639;28;20510;-70
2022/02/15 05:03:34;;;;;;;118.47;34.75;;;;;;;0.73;74.20;94337.06;5061751;28;20025;-69
2022/02/15 05:06:00;;;;;;;222.10;36.53;;;;;;;0.65;74.82;94330.38;5061645;28;20035;-70
2022/02/15 05:08:25;;;;;;;208.27;36.55;;;;;;;0.66;74.41;94331.97;5061953;28;20146;-70
2022/02/15 05:10:51;;;;;;;155.85;32.63;;;;;;;0.57;74.22;94339.47;5061276;28;20048;-70
2022/02/15 05:13:16;;;;;;;180.88;34.20;;;;;;;0.40;74.67;94323.69;5061423;28;20017;-71
2022/02/15 05:15:43;;;;;;;74.95;31.45;;;;;;;0.42;74.83;94335.78;5061806;28;20071;-71
2022/02/15 05:18:09;;;;;;;85.55;31.58;;;;;;;0.46;75.17;94339.53;5064294;28;20027;-70
2022/02/15 05:20:36;;;;;;;68.03;31.65;;;;;;;0.51;75.18;94332.56;5064987;28;20021;-69
2022/02/15 05:23:01;;;;;;;85.10;31.63;;;;;;;0.60;74.55;94343.44;5064433;28;20049;-70
2022/02/15 05:25:27;;;;;;;119.38;31.42;;;;;;;0.64;74.45;94338.50;5064731;28;20029;-70
2022/02/15 05:27:53;;;;;;;68.25;31.40;;;;;;;0.62;74.01;94340.56;5065006;28;20106;-70
2022/02/15 05:30:19;;;;;;;78.43;36.75;;;;;;;0.62;74.51;94335.34;5065081;28;20027;-71
2022/02/15 05:32:45;;;;;;;76.20;32.63;;;;;;;0.72;74.05;94343.34;5064908;28;20267;-71
2022/02/15 05:35:10;;;;;;;64.05;30.73;;;;;;;0.76;73.57;94339.22;5064899;28;20220;-70
2022/02/15 05:37:36;;;;;;;59.92;28.65;;;;;;;0.77;73.01;94346.88;5064843;28;20277;-71
2022/02/15 05:40:06;;;;;;;58.63;29.10;;;;;;;0.77;72.62;94359.97;5064466;28;20089;-71
2022/02/15 05:42:31;;;;;;;65.97;28.48;;;;;;;0.73;72.22;94352.81;5064672;28;20082;-71
2022/02/15 05:44:57;;;;;;;58.13;27.35;;;;;;;0.66;72.24;94357.44;5064635;28;20310;-71
2022/02/15 05:47:22;;;;;;;61.97;24.13;;;;;;;0.50;71.73;94367.66;5064279;28;20025;-71
2022/02/15 05:52:32;;;;;;;122.00;31.10;;;;;;;0.27;74.75;94365.19;5064423;28;20028;-71
2022/02/15 05:54:57;;;;;;;170.45;34.45;;;;;;;0.29;75.35;94379.66;5064650;28;20025;-71
2022/02/15 05:57:23;;;;;;;127.13;37.03;;;;;;;0.28;76.18;94367.56;5064575;28;20092;-71
2022/02/15 05:59:48;;;;;;;102.35;33.17;;;;;;;0.32;76.72;94375.75;5064521;28;20106;-71
2022/02/15 06:02:14;;;;;;;140.30;36.97;;;;;;;0.35;76.92;94377.91;5064394;28;20323;-71
2022/02/15 06:04:39;;;;;;;147.75;38.40;;;;;;;0.44;77.87;94375.69;5064351;28;20033;-70
2022/02/15 06:07:07;;;;;;;163.40;36.83;;;;;;;0.47;77.75;94381.28;5064156;28;20024;-70
2022/02/15 06:09:33;;;;;;;106.05;36.33;;;;;;;0.50;77.95;94386.03;5064272;28;20033;-69
2022/02/15 06:11:59;;;;;;;215.18;37.15;;;;;;;0.53;78.13;94390.81;5064156;28;20381;-70
2022/02/15 06:14:24;;;;;;;123.43;36.00;;;;;;;0.50;78.49;94393.09;5064256;28;20088;-70
2022/02/15 06:16:50;;;;;;;157.13;39.72;;;;;;;0.48;78.66;94393.34;5064061;28;20036;-71
2022/02/15 06:19:16;;;;;;;155.88;37.67;;;;;;;0.47;78.80;94394.38;5064154;28;20268;-71
2022/02/15 06:21:41;;;;;;;225.50;38.78;;;;;;;0.50;79.15;94393.91;5063976;28;20025;-71
2022/02/15 06:24:06;;;;;;;162.32;43.30;;;;;;;0.56;79.76;94395.56;5062730;28;20041;-71
2022/02/15 06:26:33;;;;;;;145.43;40.00;;;;;;;0.68;80.00;94398.13;5063972;28;20021;-71
2022/02/15 06:28:59;;;;;;;167.40;40.75;;;;;;;0.77;79.63;94395.91;5062813;28;20112;-71
2022/02/15 06:31:24;;;;;;;184.75;37.58;;;;;;;0.60;79.24;94395.91;5063813;28;20106;-71
2022/02/15 06:33:50;;;;;;;145.65;38.38;;;;;;;0.67;79.32;94401.81;5063739;28;20063;-71
2022/02/15 06:36:15;;;;;;;220.48;39.65;;;;;;;0.68;79.43;94397.34;5063794;28;20055;-70
2022/02/15 06:38:41;;;;;;;137.75;40.65;;;;;;;0.73;79.85;94400.03;5063807;28;20021;-70
2022/02/15 06:41:08;;;;;;;196.15;43.67;;;;;;;0.81;79.66;94412.75;5063642;28;20196;-70
2022/02/15 06:43:33;;;;;;;185.23;40.08;;;;;;;0.84;79.46;94406.25;5063552;28;20270;-71
2022/02/15 06:45:59;;;;;;;175.20;40.20;;;;;;;0.89;79.12;94401.88;5062765;28;20032;-71
2022/02/15 06:48:24;;;;;;;97.53;37.58;;;;;;;0.96;79.44;94407.75;5063795;28;20025;-70
2022/02/15 06:50:50;;;;;;;146.50;41.97;;;;;;;1.06;79.36;94403.69;5063145;28;20090;-71
2022/02/15 06:53:16;;;;;;;114.15;38.35;;;;;;;1.16;78.05;94406.47;5063369;28;20092;-71
2022/02/15 06:55:42;;;;;;;88.40;35.08;;;;;;;1.22;77.75;94413.38;5063424;28;20020;-71
2022/02/15 06:58:07;;;;;;;146.75;35.63;;;;;;;1.30;76.83;94407.72;5063596;28;20032;-70
2022/02/15 07:00:33;;;;;;;152.70;38.13;;;;;;;1.33;75.85;94402.00;5063377;28;20037;-71
2022/02/15 07:02:58;;;;;;;132.55;35.88;;;;;;;1.19;75.90;94400.75;5063549;28;20092;-71
2022/02/15 07:05:23;;;;;;;99.35;37.08;;;;;;;1.12;76.21;94398.28;5063083;28;20096;-70
2022/02/15 07:07:49;;;;;;;115.95;34.83;;;;;;;1.09;76.34;94398.75;5063441;28;20028;-70
2022/02/15 07:10:14;;;;;;;121.18;42.58;;;;;;;1.02;76.54;94406.03;5063046;28;20062;-70
2022/02/15 07:12:43;;;;;;;105.07;33.10;;;;;;;0.99;77.17;94412.53;5063037;28;20033;-70
2022/02/15 07:15:10;;;;;;;87.75;35.30;;;;;;;1.03;77.30;94414.69;5063426;28;20040;-74
2022/02/15 07:17:39;;;;;;;85.75;36.67;;;;;;;1.06;77.38;94424.69;5063466;28;20021;-74
2022/02/15 07:20:08;;;;;;;78.20;35.42;;;;;;;1.15;77.80;94428.50;5063649;28;20230;-74
2022/02/15 07:22:35;;;;;;;80.15;34.47;;;;;;;1.29;77.73;94423.72;5063417;28;20219;-74
2022/02/15 07:25:02;;;;;;;67.35;30.30;;;;;;;1.42;76.63;94417.34;5063282;28;20040;-73
2022/02/15 07:27:29;;;;;;;60.90;28.88;;;;;;;1.51;76.79;94410.66;5063580;28;20047;-73
2022/02/15 07:29:55;;;;;;;70.35;30.25;;;;;;;1.71;76.24;94404.84;5063208;28;20020;-70
2022/02/15 07:32:24;;;;;;;55.65;27.58;;;;;;;1.90;75.16;94394.84;5062717;28;20062;-70
2022/02/15 07:34:53;;;;;;;56.00;28.73;;;;;;;2.06;74.37;94396.59;5062726;28;20235;-70
2022/02/15 07:37:19;;;;;;;50.75;24.63;;;;;;;2.25;73.66;94404.94;5062502;28;20020;-70
2022/02/15 07:39:45;;;;;;;51.88;24.58;;;;;;;2.40;73.15;94406.91;5062518;28;20025;-71
2022/02/15 07:42:11;;;;;;;45.47;22.85;;;;;;;2.56;72.60;94398.13;5062650;28;20091;-71
2022/02/15 07:44:36;;;;;;;43.13;24.63;;;;;;;2.72;71.54;94406.97;5062488;28;20028;-71
2022/02/15 07:47:02;;;;;;;47.25;22.40;;;;;;;2.87;70.91;94392.34;5062357;28;20024;-71
2022/02/15 07:49:29;;;;;;;52.13;25.38;;;;;;;3.04;70.37;94397.50;5062357;28;20020;-71
2022/02/15 07:51:54;;;;;;;59.03;27.30;;;;;;;3.12;69.86;94392.53;5062602;28;20021;-71
2022/02/15 07:54:20;;;;;;;58.08;27.10;;;;;;;3.29;69.72;94392.38;5062523;28;20052;-71
2022/02/15 07:56:48;;;;;;;57.85;25.33;;;;;;;3.40;69.56;94394.03;5062432;28;20040;-73
2022/02/15 07:59:14;;;;;;;50.47;23.90;;;;;;;3.53;68.93;94392.00;5062260;28;20032;-73
2022/02/15 08:01:39;;;;;;;50.83;25.30;;;;;;;3.64;68.10;94391.00;5062018;28;20259;-73
2022/02/15 08:04:05;;;;;;;58.17;24.45;;;;;;;3.71;67.59;94403.97;5062134;28;20362;-73
2022/02/15 08:06:31;;;;;;;45.58;23.23;;;;;;;3.73;66.92;94400.00;5063380;28;20111;-74
2022/02/15 08:08:57;;;;;;;38.80;20.45;;;;;;;3.73;66.65;94407.94;5062895;28;20340;-74
2022/02/15 08:11:24;;;;;;;43.45;19.92;;;;;;;3.78;66.54;94402.66;5062367;28;20037;-76
2022/02/15 08:13:51;;;;;;;46.42;20.25;;;;;;;3.85;66.15;94405.09;5062418;28;20029;-76
2022/02/15 08:16:17;;;;;;;35.70;18.48;;;;;;;3.87;65.57;94404.81;5062330;28;20257;-77
2022/02/15 08:18:42;;;;;;;44.42;21.70;;;;;;;3.84;65.86;94407.97;5062443;28;20025;-77
2022/02/15 08:21:10;;;;;;;42.28;21.23;;;;;;;3.86;65.71;94416.41;5062079;28;20326;-73
2022/02/15 08:23:36;;;;;;;44.95;22.90;;;;;;;3.86;65.69;94411.94;5061921;28;20028;-74
2022/02/15 08:26:02;;;;;;;41.78;22.88;;;;;;;3.90;65.60;94404.31;5062155;28;20200;-74
2022/02/15 08:28:28;;;;;;;53.10;22.92;;;;;;;3.90;65.76;94406.94;5062228;28;20021;-74
2022/02/15 08:30:53;;;;;;;40.00;22.60;;;;;;;3.89;65.53;94410.63;5062099;28;20083;-73
2022/02/15 08:33:19;;;;;;;45.97;23.23;;;;;;;3.91;65.60;94413.78;5062158;28;20273;-74
2022/02/15 08:35:44;;;;;;;43.33;22.90;;;;;;;3.91;65.60;94400.59;5062148;28;20210;-74
2022/02/15 08:38:10;;;;;;;47.20;21.80;;;;;;;3.94;65.58;94392.19;5062102;28;20017;-74
2022/02/15 08:40:35;;;;;;;47.75;25.38;;;;;;;3.99;65.80;94394.88;5061806;28;20032;-75
2022/02/15 08:43:01;;;;;;;55.35;25.45;;;;;;;4.03;65.94;94395.94;5061551;28;20029;-74
2022/02/15 08:45:26;;;;;;;46.15;22.42;;;;;;;4.13;65.84;94390.69;5062127;28;20021;-73
2022/02/15 08:47:52;;;;;;;47.92;23.55;;;;;;;4.20;65.48;94388.59;5060741;28;20016;-73
2022/02/15 08:50:17;;;;;;;46.33;24.80;;;;;;;4.31;65.25;94409.72;5062180;28;20021;-74
2022/02/15 08:52:44;;;;;;;50.47;25.23;;;;;;;4.40;64.83;94393.13;5064484;28;20036;-74
2022/02/15 08:55:09;;;;;;;55.92;26.50;;;;;;;4.47;64.77;94390.22;5065719;28;20084;-73
2022/02/15 08:57:35;;;;;;;55.63;23.17;;;;;;;4.56;64.82;94386.03;5065410;28;20021;-73
2022/02/15 09:00:01;;;;;;;43.38;22.60;;;;;;;4.72;63.22;94392.13;5065640;28;20040;-74
2022/02/15 09:02:27;;;;;;;42.25;20.77;;;;;;;4.79;62.92;94397.16;5065659;28;20037;-72
2022/02/15 09:04:53;;;;;;;49.58;23.08;;;;;;;4.72;62.92;94384.22;5065480;28;20115;-73
2022/02/15 09:07:18;;;;;;;42.88;22.77;;;;;;;4.81;63.13;94395.81;5065381;28;20224;-75
2022/02/15 09:09:45;;;;;;;36.88;20.45;;;;;;;4.92;62.81;94396.59;5065640;28;20045;-75
2022/02/15 09:12:10;;;;;;;43.72;22.40;;;;;;;4.97;62.82;94393.97;5065541;28;20060;-75
2022/02/15 09:14:36;;;;;;;43.10;21.80;;;;;;;5.07;62.79;94395.03;5065501;28;20088;-75
2022/02/15 09:17:01;;;;;;;52.28;24.55;;;;;;;5.20;62.70;94395.28;5065368;28;20215;-75
2022/02/15 09:19:28;;;;;;;49.75;24.45;;;;;;;5.28;62.52;94393.19;5065652;28;20053;-76
2022/02/15 09:21:55;;;;;;;54.20;24.40;;;;;;;5.33;62.58;94395.78;5065068;28;20036;-74
2022/02/15 09:24:20;;;;;;;47.63;23.38;;;;;;;5.43;62.31;94391.31;5065131;28;20086;-74
2022/02/15 09:26:46;;;;;;;42.42;21.67;;;;;;;5.54;61.52;94381.50;5064987;28;20028;-74
2022/02/15 09:29:12;;;;;;;42.55;22.05;;;;;;;5.67;61.23;94384.63;5064906;28;20025;-75
2022/02/15 09:31:38;;;;;;;40.95;21.30;;;;;;;5.81;60.00;94383.00;5064956;28;20106;-77
2022/02/15 09:34:08;;;;;;;41.25;18.88;;;;;;;5.86;59.76;94375.03;5065160;28;20036;-75
2022/02/15 09:36:33;;;;;;;35.03;18.35;;;;;;;5.89;59.83;94366.56;5064980;28;20025;-74
2022/02/15 09:38:59;;;;;;;37.28;18.23;;;;;;;5.94;59.10;94373.69;5065203;28;20021;-77
2022/02/15 09:41:25;;;;;;;36.13;18.95;;;;;;;5.96;58.84;94368.94;5064893;28;20025;-76
2022/02/15 09:43:51;;;;;;;39.85;18.73;;;;;;;6.02;58.67;94363.38;5064870;28;20374;-75
2022/02/15 09:46:17;;;;;;;33.72;17.55;;;;;;;6.10;58.57;94367.28;5064945;28;20104;-74
2022/02/15 09:48:44;;;;;;;37.85;18.58;;;;;;;6.17;58.32;94362.50;5063907;28;20025;-74
2022/02/15 09:51:11;;;;;;;33.35;18.83;;;;;;;6.26;58.08;94354.00;5063441;28;20374;-76
2022/02/15 09:53:37;;;;;;;37.13;19.52;;;;;;;6.36;57.98;94340.69;5063233;28;20017;-76
2022/02/15 09:56:05;;;;;;;36.40;18.75;;;;;;;6.43;57.77;94335.88;5064396;28;20024;-76
2022/02/15 09:58:30;;;;;;;36.50;19.70;;;;;;;6.48;57.09;94338.50;5064798;28;20033;-75
2022/02/15 10:00:56;;;;;;;40.88;19.67;;;;;;;6.53;57.03;94341.09;5064330;28;20044;-75
2022/02/15 10:03:22;;;;;;;35.92;17.88;;;;;;;6.65;57.11;94330.16;5064158;28;20200;-75
2022/02/15 10:05:49;;;;;;;37.55;19.00;;;;;;;6.73;56.79;94320.84;5064493;28;20027;-75
2022/02/15 10:08:24;;;;;;;36.75;17.65;;;;;;;6.85;56.48;94329.22;5064235;28;20020;-75
2022/02/15 10:10:50;;;;;;;35.92;18.17;;;;;;;6.95;55.95;94318.53;5063976;28;20021;-76
2022/02/15 10:13:15;;;;;;;40.55;19.60;;;;;;;6.97;55.75;94311.09;5062855;28;20028;-74
2022/02/15 10:15:42;;;;;;;36.08;19.83;;;;;;;7.12;55.52;94312.03;5064269;28;20326;-74
2022/02/15 10:18:22;;;;;;;40.75;19.40;;;;;;;7.21;55.78;94308.50;5064277;28;20168;-75
2022/02/15 10:20:52;;;;;;;40.53;18.88;;;;;;;7.33;55.59;94313.41;5064150;28;20037;-75
2022/02/15 10:23:22;;;;;;;43.25;17.90;;;;;;;7.50;54.79;94297.06;5063914;28;20028;-76
2022/02/15 10:25:49;;;;;;;49.28;20.45;;;;;;;7.57;54.19;94299.34;5063706;28;20224;-75
2022/02/15 10:28:29;;;;;;;48.92;20.88;;;;;;;7.69;54.05;94296.31;5063928;28;20270;-77
2022/02/15 10:30:56;;;;;;;38.53;19.48;;;;;;;7.79;54.23;94304.16;5063649;28;20211;-77
2022/02/15 10:33:30;;;;;;;45.15;19.90;;;;;;;7.93;53.07;94301.59;5063955;28;20047;-76
2022/02/15 10:36:02;;;;;;;40.78;18.67;;;;;;;8.05;53.39;94299.31;5062658;28;20315;-76
2022/02/15 10:38:30;;;;;;;45.03;20.73;;;;;;;8.14;52.83;94294.94;5062647;28;20076;-77
2022/02/15 10:41:17;;;;;;;40.10;20.27;;;;;;;8.20;52.58;94293.00;5063804;28;20286;-77
2022/02/15 10:43:57;;;;;;;36.45;18.92;;;;;;;8.27;51.77;94282.81;5063493;28;20040;-76
2022/02/15 10:46:25;;;;;;;45.10;19.52;;;;;;;8.37;51.09;94281.88;5063623;28;20024;-77
2022/02/15 10:48:52;;;;;;;39.10;19.75;;;;;;;8.46;51.38;94282.81;5063647;28;20028;-77
2022/02/15 10:51:19;;;;;;;41.97;19.38;;;;;;;8.57;51.23;94272.84;5063645;28;20025;-77
2022/02/15 10:53:45;;;;;;;36.13;18.08;;;;;;;8.62;50.78;94262.91;5063616;28;20028;-77
2022/02/15 10:56:11;;;;;;;39.85;19.33;;;;;;;8.76;50.57;94259.53;5063261;28;20287;-76
2022/02/15 10:58:37;;;;;;;36.95;18.42;;;;;;;8.87;50.63;94260.91;5063587;28;20200;-76
2022/02/15 11:01:13;;;;;;;43.70;18.58;;;;;;;8.97;50.20;94259.94;5063317;28;20322;-76
2022/02/15 11:03:40;;;;;;;42.47;20.33;;;;;;;9.09;49.79;94249.63;5063226;28;20357;-77
2022/02/15 11:06:08;;;;;;;37.50;19.25;;;;;;;9.21;48.66;94251.81;5063288;28;20048;-76
2022/02/15 11:08:38;;;;;;;47.35;21.20;;;;;;;9.24;48.34;94248.59;5062778;28;20104;-78
2022/02/15 11:11:13;;;;;;;40.05;21.23;;;;;;;9.33;48.71;94244.13;5062439;28;20184;-75
2022/02/15 11:13:40;;;;;;;44.13;21.08;;;;;;;9.42;48.25;94239.72;5062222;28;20044;-78
2022/02/15 11:16:19;;;;;;;46.13;21.45;;;;;;;9.56;48.02;94229.06;5062453;28;20218;-78
2022/02/15 11:18:45;;;;;;;54.47;22.88;;;;;;;9.62;48.00;94230.53;5066519;28;20032;-79
2022/02/15 11:21:25;;;;;;;53.97;21.15;;;;;;;9.66;47.63;94228.06;5064197;28;20020;-78
2022/02/15 11:23:58;;;;;;;53.40;22.85;;;;;;;9.82;47.09;94224.00;5064443;28;20035;-78
2022/02/15 11:26:41;;;;;;;53.58;22.65;;;;;;;9.70;47.05;94221.06;5063315;28;20028;-77
2022/02/15 11:29:22;;;;;;;46.28;22.20;;;;;;;9.70;47.01;94213.06;5064938;28;20219;-75